createdAt,value
2022-08-14T00:01:23.951Z,204.77
2022-08-14T00:04:35.218Z,190.60
2022-08-14T00:07:21.701Z,207.57
2022-08-14T00:10:51.492Z,200.68
2022-08-14T00:13:24.364Z,199.57
2022-08-14T00:16:41.434Z,217.40
2022-08-14T00:19:24.261Z,227.35
2022-08-14T00:22:44.239Z,231.23
2022-08-14T00:25:41.834Z,217.00
2022-08-14T00:28:32.715Z,220.73
2022-08-14T00:31:34.708Z,225.82
2022-08-14T00:34:36.919Z,230.48
2022-08-14T00:37:35.836Z,242.77
2022-08-14T00:40:32.936Z,254.90
2022-08-14T00:43:22.328Z,241.57
2022-08-14T00:46:32.219Z,252.13
2022-08-14T00:49:21.257Z,262.05
2022-08-14T00:52:10.715Z,268.70
2022-08-14T00:55:02.740Z,272.92
2022-08-14T00:58:11.052Z,256.90
2022-08-14T01:01:00.264Z,286.80
2022-08-14T01:03:52.950Z,286.85
2022-08-14T01:06:41.938Z,279.63
2022-08-14T01:09:33.246Z,289.27
2022-08-14T01:12:26.913Z,280.00
2022-08-14T01:15:21.417Z,289.50
2022-08-14T01:19:01.281Z,294.15
2022-08-14T01:21:52.933Z,287.55
2022-08-14T01:24:43.587Z,310.05
2022-08-14T01:27:32.202Z,307.98
2022-08-14T01:30:41.925Z,310.98
2022-08-14T01:33:30.964Z,303.23
2022-08-14T01:36:39.836Z,294.95
2022-08-14T01:39:32.180Z,314.60
2022-08-14T01:42:32.094Z,302.02
2022-08-14T01:45:25.514Z,320.38
2022-08-14T01:48:16.063Z,310.88
2022-08-14T01:51:19.147Z,314.65
2022-08-14T01:54:10.763Z,308.92
2022-08-14T01:57:04.101Z,312.75
2022-08-14T01:59:57.439Z,321.83
2022-08-14T02:02:46.425Z,314.83
2022-08-14T02:05:38.336Z,325.55
2022-08-14T02:08:34.673Z,313.70
2022-08-14T02:11:24.526Z,323.50
2022-08-14T02:14:15.012Z,327.35
2022-08-14T02:17:20.286Z,312.95
2022-08-14T02:20:13.921Z,341.23
2022-08-14T02:23:02.605Z,339.13
2022-08-14T02:25:54.521Z,332.15
2022-08-14T02:28:58.110Z,328.13
2022-08-14T02:31:52.567Z,338.10
2022-08-14T02:34:41.358Z,342.23
2022-08-14T02:37:47.570Z,335.77
2022-08-14T02:40:37.839Z,345.30
2022-08-14T02:43:36.690Z,326.15
2022-08-14T02:46:34.477Z,329.85
2022-08-14T02:49:33.924Z,351.30
2022-08-14T02:52:56.441Z,352.17
2022-08-14T02:55:32.319Z,348.15
2022-08-14T02:58:30.508Z,339.08
2022-08-14T03:01:23.958Z,350.55
2022-08-14T03:04:13.513Z,340.73
2022-08-14T03:07:07.562Z,337.00
2022-08-14T03:10:27.710Z,352.60
2022-08-14T03:13:06.126Z,349.45
2022-08-14T03:16:02.246Z,353.48
2022-08-14T03:19:00.352Z,374.40
2022-08-14T03:21:52.973Z,358.58
2022-08-14T03:24:43.022Z,353.58
2022-08-14T03:27:35.129Z,361.70
2022-08-14T03:30:39.428Z,362.92
2022-08-14T03:33:38.429Z,377.70
2022-08-14T03:37:51.227Z,383.00
2022-08-14T03:39:38.299Z,361.85
2022-08-14T03:42:35.653Z,374.05
2022-08-14T03:45:34.780Z,376.15
2022-08-14T03:48:30.499Z,377.15
2022-08-14T03:51:19.544Z,383.77
2022-08-14T03:54:09.307Z,365.48
2022-08-14T03:57:04.147Z,374.38
2022-08-14T03:59:53.563Z,372.20
2022-08-14T04:02:47.068Z,367.42
2022-08-14T04:05:43.445Z,379.52
2022-08-14T04:08:38.015Z,364.30
2022-08-14T04:11:26.324Z,364.13
2022-08-14T04:14:15.233Z,371.83
2022-08-14T04:17:04.859Z,361.65
2022-08-14T04:19:59.419Z,357.42
2022-08-14T04:22:47.555Z,353.58
2022-08-14T04:25:36.427Z,353.30
2022-08-14T04:29:08.582Z,354.02
2022-08-14T04:33:01.834Z,334.13
2022-08-14T04:34:46.742Z,350.25
2022-08-14T04:37:57.786Z,341.90
2022-08-14T04:41:03.490Z,345.00
2022-08-14T04:43:53.587Z,330.98
2022-08-14T04:47:01.646Z,329.90
2022-08-14T04:49:56.987Z,333.17
2022-08-14T04:52:49.274Z,333.05
2022-08-14T04:55:47.780Z,349.55
2022-08-14T04:58:40.482Z,338.05
2022-08-14T05:01:29.113Z,324.52
2022-08-14T05:04:27.792Z,315.90
2022-08-14T05:07:17.670Z,315.85
2022-08-14T05:10:13.065Z,338.75
2022-08-14T05:13:24.369Z,342.35
2022-08-14T05:16:14.691Z,300.33
2022-08-14T05:19:17.871Z,318.80
2022-08-14T05:22:16.393Z,333.88
2022-08-14T05:25:09.054Z,329.73
2022-08-14T05:28:00.466Z,329.27
2022-08-14T05:30:50.411Z,324.73
2022-08-14T05:33:39.289Z,325.95
2022-08-14T05:36:27.823Z,309.73
2022-08-14T05:39:18.469Z,319.88
2022-08-14T05:42:21.359Z,333.17
2022-08-14T05:45:10.948Z,321.33
2022-08-14T05:48:01.546Z,315.48
2022-08-14T05:50:49.913Z,305.13
2022-08-14T05:53:42.367Z,305.98
2022-08-14T05:56:30.808Z,310.88
2022-08-14T05:59:36.340Z,321.45
2022-08-14T06:02:26.922Z,302.95
2022-08-14T06:05:17.487Z,298.02
2022-08-14T06:08:36.518Z,303.05
2022-08-14T06:11:31.138Z,320.38
2022-08-14T06:14:24.033Z,307.05
2022-08-14T06:17:25.675Z,302.92
2022-08-14T06:20:15.951Z,257.42
2022-08-14T06:23:10.209Z,247.05
2022-08-14T06:25:58.363Z,231.90
2022-08-14T06:28:47.088Z,194.98
2022-08-14T06:31:36.407Z,187.40
2022-08-14T06:35:02.225Z,180.23
2022-08-14T06:37:40.235Z,162.32
2022-08-14T06:40:34.438Z,161.57
2022-08-14T06:43:27.085Z,143.75
2022-08-14T06:46:23.187Z,127.90
2022-08-14T06:49:27.038Z,127.32
2022-08-14T06:52:16.508Z,119.03
2022-08-14T06:55:05.743Z,111.93
2022-08-14T06:57:55.326Z,102.15
2022-08-14T07:01:04.737Z,96.72
2022-08-14T07:04:12.779Z,86.82
2022-08-14T07:07:12.714Z,77.85
2022-08-14T07:10:01.379Z,80.10
2022-08-14T07:13:00.761Z,80.07
2022-08-14T07:15:55.102Z,74.70
2022-08-14T07:18:43.547Z,70.35
2022-08-14T07:21:33.045Z,64.32
2022-08-14T07:24:26.473Z,62.60
2022-08-14T07:27:19.866Z,58.22
2022-08-14T07:30:34.300Z,53.78
2022-08-14T07:33:24.560Z,45.95
2022-08-14T07:36:27.905Z,40.80
2022-08-14T07:39:18.642Z,34.58
2022-08-14T07:42:22.567Z,33.15
2022-08-14T07:45:11.866Z,20.88
2022-08-14T07:47:59.967Z,15.38
2022-08-14T07:50:50.567Z,11.80
2022-08-14T07:53:41.224Z,12.32
2022-08-14T07:56:44.140Z,13.68
2022-08-14T07:59:42.202Z,13.68
2022-08-14T08:02:32.819Z,13.48
2022-08-14T08:05:24.229Z,14.80
2022-08-14T08:08:26.824Z,14.27
2022-08-14T08:11:16.559Z,14.85
2022-08-14T08:14:10.392Z,14.90
2022-08-14T08:17:06.797Z,14.90
2022-08-14T08:19:55.019Z,15.93
2022-08-14T08:22:48.421Z,14.82
2022-08-14T08:25:41.090Z,14.73
2022-08-14T08:28:29.208Z,16.10
2022-08-14T08:31:17.309Z,16.73
2022-08-14T08:34:14.387Z,15.60
2022-08-14T08:37:07.294Z,14.13
2022-08-14T08:40:03.403Z,13.05
2022-08-14T08:42:53.306Z,13.50
2022-08-14T08:45:45.115Z,13.07
2022-08-14T08:48:53.869Z,13.52
2022-08-14T08:51:42.940Z,13.35
2022-08-14T08:54:31.779Z,13.15
2022-08-14T08:57:21.329Z,13.82
2022-08-14T09:00:24.673Z,14.35
2022-08-14T09:03:20.323Z,14.35
2022-08-14T09:07:00.316Z,15.27
2022-08-14T09:09:22.315Z,15.18
2022-08-14T09:12:13.884Z,14.73
2022-08-14T09:15:04.371Z,15.18
2022-08-14T09:18:00.921Z,16.92
2022-08-14T09:20:51.485Z,17.13
2022-08-14T09:24:28.616Z,17.40
2022-08-14T09:26:52.928Z,17.73
2022-08-14T09:29:42.100Z,18.48
2022-08-14T09:32:58.619Z,18.40
2022-08-14T09:35:58.230Z,18.27
2022-08-14T09:38:53.586Z,19.27
2022-08-14T09:42:21.346Z,19.77
2022-08-14T09:45:16.646Z,19.27
2022-08-14T09:48:16.411Z,19.52
2022-08-14T09:54:19.035Z,21.85
2022-08-14T09:57:13.969Z,21.38
2022-08-14T10:00:30.435Z,21.08
2022-08-14T10:03:33.077Z,21.85
2022-08-14T10:06:25.227Z,24.80
2022-08-14T10:09:17.072Z,26.83
2022-08-14T10:12:06.765Z,29.50
2022-08-14T10:15:18.104Z,27.33
2022-08-14T10:18:09.584Z,28.30
2022-08-14T10:21:09.754Z,26.85
2022-08-14T10:23:57.896Z,23.02
2022-08-14T10:27:00.604Z,24.08
2022-08-14T10:29:51.002Z,22.92
2022-08-14T10:32:51.837Z,22.58
2022-08-14T10:35:41.756Z,21.23
2022-08-14T10:38:37.467Z,20.92
2022-08-14T10:41:46.691Z,19.63
2022-08-14T10:44:38.835Z,20.63
2022-08-14T10:48:06.946Z,19.38
2022-08-14T10:50:51.359Z,18.63
2022-08-14T10:53:40.131Z,16.60
2022-08-14T10:56:35.118Z,14.85
2022-08-14T10:59:23.364Z,14.68
2022-08-14T11:02:45.062Z,13.65
2022-08-14T11:05:41.759Z,13.10
2022-08-14T11:08:34.951Z,12.13
2022-08-14T11:11:25.181Z,13.68
2022-08-14T11:14:22.460Z,13.65
2022-08-14T11:17:11.568Z,13.32
2022-08-14T11:20:01.508Z,13.55
2022-08-14T11:22:57.780Z,12.23
2022-08-14T11:25:53.298Z,11.63
2022-08-14T11:28:46.820Z,12.00
2022-08-14T11:31:39.339Z,11.23
2022-08-14T11:34:31.855Z,12.00
2022-08-14T11:37:33.888Z,11.38
2022-08-14T11:40:30.592Z,11.52
2022-08-14T11:43:29.207Z,10.52
2022-08-14T11:46:29.932Z,10.65
2022-08-14T11:49:27.214Z,9.20
2022-08-14T11:52:22.839Z,8.90
2022-08-14T11:55:15.044Z,9.15
2022-08-14T11:58:05.929Z,8.85
2022-08-14T12:00:58.690Z,8.55
2022-08-14T12:03:51.991Z,8.75
2022-08-14T12:06:49.702Z,7.57
2022-08-14T12:09:42.840Z,7.53
2022-08-14T12:12:47.294Z,8.30
2022-08-14T12:15:37.806Z,8.23
2022-08-14T12:18:37.082Z,7.95
2022-08-14T12:21:32.219Z,8.35
2022-08-14T12:24:36.822Z,8.48
2022-08-14T12:27:51.834Z,8.88
2022-08-14T12:30:44.323Z,8.43
2022-08-14T12:33:34.404Z,8.93
2022-08-14T12:36:22.693Z,9.25
2022-08-14T12:39:19.992Z,8.77
2022-08-14T12:42:11.587Z,8.27
2022-08-14T12:45:16.641Z,8.13
2022-08-14T12:48:20.753Z,8.15
2022-08-14T12:51:21.762Z,7.75
2022-08-14T12:54:27.750Z,7.68
2022-08-14T12:57:20.395Z,7.78
2022-08-14T13:00:23.028Z,8.48
2022-08-14T13:03:24.329Z,8.27
2022-08-14T13:06:15.530Z,24.53
2022-08-14T13:09:07.815Z,13.38
2022-08-14T13:12:34.965Z,11.75
2022-08-14T13:15:13.815Z,10.38
2022-08-14T13:18:04.717Z,10.52
2022-08-14T13:20:57.918Z,13.98
2022-08-14T13:23:49.662Z,10.40
2022-08-14T13:26:43.524Z,9.82
2022-08-14T13:29:41.118Z,9.80
2022-08-14T13:32:39.352Z,9.48
2022-08-14T13:35:27.765Z,8.25
2022-08-14T13:38:20.337Z,8.27
2022-08-14T13:41:08.999Z,8.32
2022-08-14T13:44:00.454Z,9.05
2022-08-14T13:46:49.565Z,10.20
2022-08-14T13:49:40.363Z,10.88
2022-08-14T13:52:54.799Z,9.73
2022-08-14T13:55:45.115Z,9.68
2022-08-14T13:58:40.351Z,8.80
2022-08-14T14:01:42.860Z,9.02
2022-08-14T14:04:33.234Z,9.15
2022-08-14T14:07:23.338Z,9.63
2022-08-14T14:10:13.321Z,9.18
2022-08-14T14:13:02.622Z,9.05
2022-08-14T14:15:58.377Z,8.02
2022-08-14T14:18:52.207Z,7.90
2022-08-14T14:21:41.797Z,7.70
2022-08-14T14:24:34.798Z,8.02
2022-08-14T14:27:42.432Z,8.60
2022-08-14T14:30:51.694Z,8.10
2022-08-14T14:33:47.628Z,7.90
2022-08-14T14:36:40.621Z,7.80
2022-08-14T14:39:29.864Z,7.28
2022-08-14T14:42:32.424Z,7.68
2022-08-14T14:45:24.339Z,7.40
2022-08-14T14:48:13.052Z,7.32
2022-08-14T14:51:04.421Z,7.05
2022-08-14T14:53:54.115Z,6.85
2022-08-14T14:56:51.117Z,6.72
2022-08-14T14:59:40.709Z,7.18
2022-08-14T15:02:36.508Z,6.63
2022-08-14T15:05:28.494Z,6.68
2022-08-14T15:08:17.141Z,6.55
2022-08-14T15:11:16.453Z,6.95
2022-08-14T15:14:53.957Z,6.95
2022-08-14T15:17:13.139Z,6.68
2022-08-14T15:20:03.645Z,6.97
2022-08-14T15:22:51.913Z,7.28
2022-08-14T15:25:40.085Z,7.50
2022-08-14T15:28:38.761Z,6.97
2022-08-14T15:31:27.103Z,6.90
2022-08-14T15:34:43.999Z,7.15
2022-08-14T15:37:32.767Z,7.35
2022-08-14T15:40:22.733Z,7.50
2022-08-14T15:43:12.856Z,8.32
2022-08-14T15:46:03.394Z,8.30
2022-08-14T15:48:51.542Z,7.88
2022-08-14T15:51:43.925Z,8.68
2022-08-14T15:54:33.791Z,7.78
2022-08-14T15:57:22.344Z,7.55
2022-08-14T16:00:43.545Z,7.28
2022-08-14T16:03:36.476Z,6.72
2022-08-14T16:06:30.255Z,7.47
2022-08-14T16:09:18.562Z,7.43
2022-08-14T16:12:10.207Z,7.55
2022-08-14T16:14:58.395Z,7.78
2022-08-14T16:17:47.454Z,8.00
2022-08-14T16:20:44.537Z,7.72
2022-08-14T16:23:36.172Z,8.38
2022-08-14T16:26:30.020Z,8.32
2022-08-14T16:29:21.225Z,7.72
2022-08-14T16:32:32.627Z,8.07
2022-08-14T16:35:22.028Z,8.20
2022-08-14T16:38:19.528Z,7.72
2022-08-14T16:41:32.321Z,8.13
2022-08-14T16:44:33.478Z,7.78
2022-08-14T16:47:22.630Z,7.90
2022-08-14T16:50:11.650Z,7.45
2022-08-14T16:53:03.607Z,7.72
2022-08-14T16:58:49.940Z,8.43
2022-08-14T17:01:44.046Z,7.78
2022-08-14T17:04:34.481Z,7.53
2022-08-14T17:07:29.456Z,7.38
2022-08-14T17:10:28.238Z,7.30
2022-08-14T17:13:18.081Z,9.35
2022-08-14T17:16:24.996Z,11.85
2022-08-14T17:19:17.677Z,12.77
2022-08-14T17:22:10.872Z,15.07
2022-08-14T17:25:03.999Z,23.23
2022-08-14T17:28:50.269Z,23.15
2022-08-14T17:31:20.996Z,23.17
2022-08-14T17:34:18.264Z,26.95
2022-08-14T17:37:06.931Z,32.08
2022-08-14T17:40:14.988Z,37.05
2022-08-14T17:43:04.342Z,34.38
2022-08-14T17:45:52.346Z,35.60
2022-08-14T17:49:14.400Z,37.60
2022-08-14T17:52:01.409Z,35.55
2022-08-14T17:54:52.703Z,42.67
2022-08-14T17:57:47.161Z,44.35
2022-08-14T18:00:39.499Z,50.80
2022-08-14T18:03:51.232Z,51.17
2022-08-14T18:06:58.782Z,49.50
2022-08-14T18:09:57.610Z,47.40
2022-08-14T18:12:48.609Z,49.72
2022-08-14T18:15:37.596Z,49.55
2022-08-14T18:18:25.818Z,46.33
2022-08-14T18:21:39.796Z,46.67
2022-08-14T18:24:31.781Z,41.35
2022-08-14T18:27:23.503Z,36.85
2022-08-14T18:30:33.105Z,33.50
2022-08-14T18:33:23.096Z,30.75
2022-08-14T18:36:47.915Z,32.15
2022-08-14T18:39:26.281Z,32.50
2022-08-14T18:42:44.256Z,34.30
2022-08-14T18:45:33.922Z,36.70
2022-08-14T18:48:50.760Z,40.20
2022-08-14T18:51:45.509Z,46.95
2022-08-14T18:54:38.081Z,50.10
2022-08-14T18:57:26.602Z,53.75
2022-08-14T19:00:51.932Z,56.25
2022-08-14T19:03:49.088Z,60.25
2022-08-14T19:06:43.298Z,60.95
2022-08-14T19:09:52.454Z,62.47
2022-08-14T19:13:02.958Z,63.05
2022-08-14T19:16:06.137Z,68.40
2022-08-14T19:19:00.378Z,69.07
2022-08-14T19:21:56.146Z,70.72
2022-08-14T19:24:45.240Z,78.90
2022-08-14T19:27:42.017Z,78.68
2022-08-14T19:30:32.446Z,86.00
2022-08-14T19:33:52.755Z,85.47
2022-08-14T19:37:04.305Z,90.85
2022-08-14T19:39:54.476Z,94.32
2022-08-14T19:42:47.231Z,101.68
2022-08-14T19:45:37.972Z,99.88
2022-08-14T19:48:26.017Z,100.28
2022-08-14T19:51:16.087Z,106.75
2022-08-14T19:54:13.222Z,102.10
2022-08-14T19:57:02.424Z,110.82
2022-08-14T20:00:00.311Z,107.38
2022-08-14T20:02:59.349Z,112.63
2022-08-14T20:06:00.368Z,105.97
2022-08-14T20:10:59.960Z,118.22
2022-08-14T20:12:28.728Z,107.15
2022-08-14T20:15:21.080Z,107.97
2022-08-14T20:18:22.171Z,105.03
2022-08-14T20:21:18.644Z,106.05
2022-08-14T20:24:30.979Z,105.78
2022-08-14T20:27:33.732Z,105.97
2022-08-14T20:30:35.363Z,102.90
2022-08-14T20:33:24.868Z,99.53
2022-08-14T20:36:16.196Z,98.00
2022-08-14T20:39:15.275Z,102.32
2022-08-14T20:42:30.223Z,105.10
2022-08-14T20:45:21.502Z,104.70
2022-08-14T20:48:12.471Z,107.35
2022-08-14T20:51:23.926Z,107.65
2022-08-14T20:54:15.232Z,99.50
2022-08-14T20:57:07.736Z,100.80
2022-08-14T20:59:57.731Z,103.35
2022-08-14T21:02:50.833Z,95.57
2022-08-14T21:05:39.094Z,98.88
2022-08-14T21:08:37.003Z,103.72
2022-08-14T21:11:28.058Z,99.53
2022-08-14T21:14:24.849Z,104.53
2022-08-14T21:17:15.112Z,108.35
2022-08-14T21:20:25.768Z,103.43
2022-08-14T21:23:17.247Z,104.70
2022-08-14T21:26:07.471Z,109.22
2022-08-14T21:28:56.831Z,109.35
2022-08-14T21:31:56.147Z,114.55
2022-08-14T21:34:54.949Z,109.05
2022-08-14T21:37:46.047Z,104.60
2022-08-14T21:40:41.953Z,100.22
2022-08-14T21:43:32.126Z,105.18
2022-08-14T21:46:20.981Z,106.25
2022-08-14T21:49:13.222Z,100.93
2022-08-14T21:52:50.619Z,100.07
2022-08-14T21:55:23.409Z,91.07
2022-08-14T21:58:54.133Z,92.53
2022-08-14T22:01:20.335Z,93.57
2022-08-14T22:04:33.664Z,89.53
2022-08-14T22:07:18.126Z,84.00
2022-08-14T22:10:07.413Z,84.18
2022-08-14T22:13:00.422Z,78.15
2022-08-14T22:15:51.142Z,80.03
2022-08-14T22:18:46.474Z,81.65
2022-08-14T22:21:34.577Z,75.82
2022-08-14T22:24:38.275Z,79.05
2022-08-14T22:27:32.570Z,80.63
2022-08-14T22:30:22.142Z,84.25
2022-08-14T22:33:13.264Z,85.30
2022-08-14T22:36:24.890Z,79.85
2022-08-14T22:39:14.478Z,73.07
2022-08-14T22:42:02.753Z,75.30
2022-08-14T22:45:11.378Z,78.57
2022-08-14T22:48:02.206Z,81.50
2022-08-14T22:50:53.740Z,76.97
2022-08-14T22:53:42.937Z,72.97
2022-08-14T22:56:31.458Z,82.25
2022-08-14T22:59:20.416Z,76.22
2022-08-14T23:02:30.296Z,78.20
2022-08-14T23:05:38.925Z,71.93
2022-08-14T23:08:56.207Z,70.82
2022-08-14T23:11:37.870Z,75.57
2022-08-14T23:14:26.827Z,79.72
2022-08-14T23:17:18.905Z,80.25
2022-08-14T23:20:18.817Z,79.43
2022-08-14T23:23:22.289Z,73.88
2022-08-14T23:26:49.302Z,69.57
2022-08-14T23:29:20.257Z,60.13
2022-08-14T23:32:18.719Z,62.97
2022-08-14T23:35:08.120Z,58.05
2022-08-14T23:38:02.639Z,63.78
2022-08-14T23:40:52.116Z,59.55
2022-08-14T23:43:43.864Z,59.03
2022-08-14T23:46:34.621Z,57.63
2022-08-14T23:49:23.086Z,56.78
2022-08-14T23:53:07.364Z,54.08
2022-08-14T23:55:19.239Z,52.38
2022-08-14T23:58:10.459Z,54.70
